Time,TemperatureF,DewpointF,PressureIn,WindDirection,WindDirectionDegrees,WindSpeedMPH,WindSpeedGustMPH,Humidity,HourlyPrecipIn,Conditions,Clouds,dailyrainin,SoftwareType,DateUTC
2013-05-04 00:14:00,63.2,46.0,30.15,ESE,122,2.0,3.0,53,0.00,,,0.00,weatherlink.com 1.10,2013-05-04 04:14:00,
2013-05-04 00:29:00,64.0,45.0,30.15,SSE,160,3.0,10.0,50,0.00,,,0.00,weatherlink.com 1.10,2013-05-04 04:29:00,
2013-05-04 00:44:00,64.5,44.0,30.15,South,178,3.0,9.0,48,0.00,,,0.00,weatherlink.com 1.10,2013-05-04 04:44:00,
2013-05-04 00:59:00,64.0,44.0,30.15,SSE,161,4.0,7.0,48,0.00,,,0.00,weatherlink.com 1.10,2013-05-04 04:59:00,
2013-05-04 01:14:00,63.3,44.0,30.15,SSE,155,2.0,6.0,49,0.00,,,0.00,weatherlink.com 1.10,2013-05-04 05:14:00,
2013-05-04 01:29:00,62.7,44.0,30.15,SSW,203,3.0,4.0,50,0.00,,,0.00,weatherlink.com 1.10,2013-05-04 05:29:00,
2013-05-04 01:44:00,61.9,43.0,30.15,SW,236,2.0,3.0,51,0.00,,,0.00,weatherlink.com 1.10,2013-05-04 05:44:00,
2013-05-04 01:59:00,61.4,43.0,30.16,South,179,3.0,6.0,52,0.00,,,0.00,weatherlink.com 1.10,2013-05-04 05:59:00,
2013-05-04 02:16:00,61.0,43.0,30.16,SSW,195,3.0,6.0,52,0.00,,,0.00,weatherlink.com 1.10,2013-05-04 06:16:00,
2013-05-04 02:30:00,60.9,43.0,30.15,SE,139,3.0,4.0,52,0.00,,,0.00,weatherlink.com 1.10,2013-05-04 06:30:00,
2013-05-04 02:46:00,60.2,43.0,30.15,South,169,2.0,2.0,53,0.00,,,0.00,weatherlink.com 1.10,2013-05-04 06:46:00,
2013-05-04 03:00:00,59.4,43.0,30.15,South,188,1.0,2.0,55,0.00,,,0.00,weatherlink.com 1.10,2013-05-04 07:00:00,
2013-05-04 03:15:00,58.9,43.0,30.15,SW,214,1.0,2.0,56,0.00,,,0.00,weatherlink.com 1.10,2013-05-04 07:15:00,
2013-05-04 03:31:00,58.0,43.0,30.15,SSW,196,0.0,1.0,57,0.00,,,0.00,weatherlink.com 1.10,2013-05-04 07:31:00,
2013-05-04 03:47:00,56.8,42.0,30.16,SSW,195,0.0,0.0,59,0.00,,,0.00,weatherlink.com 1.10,2013-05-04 07:47:00,
2013-05-04 04:01:00,55.7,43.0,30.16,SSW,195,0.0,0.0,62,0.00,,,0.00,weatherlink.com 1.10,2013-05-04 08:01:00,
2013-05-04 04:16:00,55.2,43.0,30.16,SSW,196,0.0,0.0,63,0.00,,,0.00,weatherlink.com 1.10,2013-05-04 08:16:00,
2013-05-04 04:31:00,54.9,43.0,30.16,SSE,155,3.0,3.0,64,0.00,,,0.00,weatherlink.com 1.10,2013-05-04 08:31:00,
2013-05-04 04:45:00,55.9,43.0,30.16,SE,145,1.0,4.0,62,0.00,,,0.00,weatherlink.com 1.10,2013-05-04 08:45:00,
2013-05-04 05:02:00,55.0,41.0,30.21,South,186,3.0,6.0,59,0.00,,,0.00,weatherlink.com 1.10,2013-05-04 09:02:00,
2013-05-04 05:16:00,55.3,40.0,30.22,South,180,2.0,7.0,56,0.00,,,0.00,weatherlink.com 1.10,2013-05-04 09:16:00,
2013-05-04 05:30:00,55.6,40.0,30.22,South,188,8.0,9.0,56,0.00,,,0.00,weatherlink.com 1.10,2013-05-04 09:30:00,
2013-05-04 05:45:00,56.1,39.0,30.23,SSE,148,6.0,11.0,54,0.00,,,0.00,weatherlink.com 1.10,2013-05-04 09:45:00,
2013-05-04 06:00:00,55.7,40.0,30.23,SSE,155,3.0,7.0,55,0.00,,,0.00,weatherlink.com 1.10,2013-05-04 10:00:00,
2013-05-04 06:15:00,55.1,40.0,30.23,South,190,3.0,6.0,57,0.00,,,0.00,weatherlink.com 1.10,2013-05-04 10:15:00,
2013-05-04 06:31:00,54.8,40.0,30.24,SSE,162,5.0,6.0,57,0.00,,,0.00,weatherlink.com 1.10,2013-05-04 10:31:00,
2013-05-04 06:46:00,55.0,40.0,30.24,South,190,5.0,9.0,57,0.00,,,0.00,weatherlink.com 1.10,2013-05-04 10:46:00,
2013-05-04 07:01:00,55.6,39.0,30.25,SE,133,5.0,8.0,55,0.00,,,0.00,weatherlink.com 1.10,2013-05-04 11:01:00,
2013-05-04 07:16:00,56.3,40.0,30.25,SSE,156,5.0,7.0,54,0.00,,,0.00,weatherlink.com 1.10,2013-05-04 11:16:00,
2013-05-04 07:31:00,56.6,39.0,30.25,SSW,204,6.0,8.0,53,0.00,,,0.00,weatherlink.com 1.10,2013-05-04 11:31:00,
2013-05-04 07:46:00,56.9,39.0,30.25,SSW,193,3.0,10.0,52,0.00,,,0.00,weatherlink.com 1.10,2013-05-04 11:46:00,
2013-05-04 08:01:00,57.2,37.0,30.25,SSW,211,8.0,13.0,48,0.00,,,0.00,weatherlink.com 1.10,2013-05-04 12:01:00,
2013-05-04 08:16:00,57.0,35.0,30.25,South,191,8.0,17.0,44,0.00,,,0.00,weatherlink.com 1.10,2013-05-04 12:16:00,
2013-05-04 08:31:00,57.4,35.0,30.25,SSE,157,10.0,14.0,43,0.00,,,0.00,weatherlink.com 1.10,2013-05-04 12:31:00,
2013-05-04 08:46:00,57.8,34.0,30.26,SSW,196,1.0,16.0,41,0.00,,,0.00,weatherlink.com 1.10,2013-05-04 12:46:00,
2013-05-04 09:01:00,58.3,34.0,30.26,SSE,163,9.0,12.0,40,0.00,,,0.00,weatherlink.com 1.10,2013-05-04 13:01:00,
2013-05-04 09:17:00,58.8,33.0,30.26,SSE,163,4.0,12.0,38,0.00,,,0.00,weatherlink.com 1.10,2013-05-04 13:17:00,
2013-05-04 09:31:00,59.7,33.0,30.26,South,172,6.0,11.0,37,0.00,,,0.00,weatherlink.com 1.10,2013-05-04 13:31:00,
2013-05-04 09:46:00,60.6,33.0,30.26,SSW,194,5.0,8.0,36,0.00,,,0.00,weatherlink.com 1.10,2013-05-04 13:46:00,
2013-05-04 10:01:00,61.3,34.0,30.26,SE,125,7.0,8.0,36,0.00,,,0.00,weatherlink.com 1.10,2013-05-04 14:01:00,
2013-05-04 10:16:00,62.1,35.0,30.26,SE,139,4.0,5.0,37,0.00,,,0.00,weatherlink.com 1.10,2013-05-04 14:16:00,
2013-05-04 10:31:00,63.5,34.0,30.25,ESE,111,2.0,5.0,34,0.00,,,0.00,weatherlink.com 1.10,2013-05-04 14:31:00,
2013-05-04 10:46:00,63.4,33.0,30.25,East,95,2.0,5.0,32,0.00,,,0.00,weatherlink.com 1.10,2013-05-04 14:46:00,
2013-05-04 11:01:00,64.5,34.0,30.25,SE,144,0.0,3.0,32,0.00,,,0.00,weatherlink.com 1.10,2013-05-04 15:01:00,
2013-05-04 11:17:00,66.1,34.0,30.24,NNW,335,2.0,5.0,31,0.00,,,0.00,weatherlink.com 1.10,2013-05-04 15:17:00,
2013-05-04 11:31:00,65.7,35.0,30.24,North,358,7.0,8.0,32,0.00,,,0.00,weatherlink.com 1.10,2013-05-04 15:31:00,
2013-05-04 11:46:00,65.8,32.0,30.24,ENE,61,3.0,8.0,28,0.00,,,0.00,weatherlink.com 1.10,2013-05-04 15:46:00,
2013-05-04 12:01:00,66.7,33.0,30.24,North,356,5.0,9.0,29,0.00,,,0.00,weatherlink.com 1.10,2013-05-04 16:01:00,
2013-05-04 12:17:00,67.4,33.0,30.23,ENE,60,0.0,7.0,28,0.00,,,0.00,weatherlink.com 1.10,2013-05-04 16:17:00,
2013-05-04 12:32:00,68.5,36.0,30.22,East,96,1.0,8.0,30,0.00,,,0.00,weatherlink.com 1.10,2013-05-04 16:32:00,
2013-05-04 12:47:00,69.1,35.0,30.22,East,93,4.0,10.0,28,0.00,,,0.00,weatherlink.com 1.10,2013-05-04 16:47:00,
2013-05-04 13:01:00,69.3,33.0,30.21,NE,56,4.0,6.0,26,0.00,,,0.00,weatherlink.com 1.10,2013-05-04 17:01:00,
2013-05-04 13:17:00,69.3,34.0,30.21,ENE,70,3.0,10.0,27,0.00,,,0.00,weatherlink.com 1.10,2013-05-04 17:17:00,
2013-05-04 13:32:00,69.5,34.0,30.21,East,84,4.0,11.0,27,0.00,,,0.00,weatherlink.com 1.10,2013-05-04 17:32:00,
2013-05-04 13:47:00,69.9,35.0,30.20,NE,47,9.0,10.0,28,0.00,,,0.00,weatherlink.com 1.10,2013-05-04 17:47:00,
2013-05-04 14:02:00,70.4,37.0,30.19,NNW,330,1.0,6.0,29,0.00,,,0.00,weatherlink.com 1.10,2013-05-04 18:02:00,
2013-05-04 14:17:00,70.6,38.0,30.19,ENE,57,6.0,9.0,30,0.00,,,0.00,weatherlink.com 1.10,2013-05-04 18:17:00,
2013-05-04 14:32:00,70.3,41.0,30.18,NNW,345,3.0,14.0,34,0.00,,,0.00,weatherlink.com 1.10,2013-05-04 18:32:00,
2013-05-04 14:47:00,69.7,41.0,30.18,NNE,16,5.0,17.0,35,0.00,,,0.00,weatherlink.com 1.10,2013-05-04 18:47:00,
2013-05-04 15:01:00,69.9,41.0,30.17,NNE,26,9.0,14.0,35,0.00,,,0.00,weatherlink.com 1.10,2013-05-04 19:01:00,
2013-05-04 15:17:00,69.6,41.0,30.16,NNW,347,11.0,15.0,36,0.00,,,0.00,weatherlink.com 1.10,2013-05-04 19:17:00,
2013-05-04 15:32:00,69.9,43.0,30.16,NNW,347,5.0,12.0,38,0.00,,,0.00,weatherlink.com 1.10,2013-05-04 19:32:00,
2013-05-04 15:47:00,70.1,42.0,30.16,NNW,330,7.0,13.0,36,0.00,,,0.00,weatherlink.com 1.10,2013-05-04 19:47:00,
2013-05-04 16:01:00,69.8,42.0,30.16,NNE,27,12.0,14.0,37,0.00,,,0.00,weatherlink.com 1.10,2013-05-04 20:01:00,
2013-05-04 16:17:00,69.8,41.0,30.15,NE,44,12.0,13.0,35,0.00,,,0.00,weatherlink.com 1.10,2013-05-04 20:17:00,
2013-05-04 16:32:00,69.5,41.0,30.15,North,8,9.0,16.0,36,0.00,,,0.00,weatherlink.com 1.10,2013-05-04 20:32:00,
2013-05-04 16:47:00,69.2,41.0,30.14,NE,37,8.0,15.0,36,0.00,,,0.00,weatherlink.com 1.10,2013-05-04 20:47:00,
2013-05-04 17:02:00,69.7,42.0,30.14,ENE,57,10.0,15.0,37,0.00,,,0.00,weatherlink.com 1.10,2013-05-04 21:02:00,
2013-05-04 17:17:00,69.8,42.0,30.14,NE,47,5.0,13.0,37,0.00,,,0.00,weatherlink.com 1.10,2013-05-04 21:17:00,
2013-05-04 17:32:00,70.0,44.0,30.13,NNE,20,5.0,16.0,39,0.00,,,0.00,weatherlink.com 1.10,2013-05-04 21:32:00,
2013-05-04 17:47:00,69.8,43.0,30.13,NNE,29,5.0,11.0,38,0.00,,,0.00,weatherlink.com 1.10,2013-05-04 21:47:00,
2013-05-04 18:02:00,69.9,45.0,30.13,NNE,30,2.0,10.0,41,0.00,,,0.00,weatherlink.com 1.10,2013-05-04 22:02:00,
2013-05-04 18:19:00,69.4,44.0,30.12,NE,44,8.0,12.0,40,0.00,,,0.00,weatherlink.com 1.10,2013-05-04 22:19:00,
2013-05-04 18:34:00,69.2,44.0,30.12,North,350,4.0,11.0,40,0.00,,,0.00,weatherlink.com 1.10,2013-05-04 22:34:00,
2013-05-04 18:48:00,68.7,44.0,30.12,NE,49,4.0,11.0,41,0.00,,,0.00,weatherlink.com 1.10,2013-05-04 22:48:00,
2013-05-04 19:02:00,68.3,44.0,30.12,SE,146,0.0,10.0,41,0.00,,,0.00,weatherlink.com 1.10,2013-05-04 23:02:00,
2013-05-04 19:17:00,67.8,44.0,30.12,NE,53,10.0,11.0,42,0.00,,,0.00,weatherlink.com 1.10,2013-05-04 23:17:00,
2013-05-04 19:34:00,67.0,44.0,30.12,NE,56,2.0,7.0,43,0.00,,,0.00,weatherlink.com 1.10,2013-05-04 23:34:00,
2013-05-04 19:49:00,66.1,44.0,30.12,NE,39,2.0,8.0,45,0.00,,,0.00,weatherlink.com 1.10,2013-05-04 23:49:00,
2013-05-04 20:02:00,65.0,44.0,30.12,ENE,66,2.0,7.0,46,0.00,,,0.00,weatherlink.com 1.10,2013-05-05 00:02:00,
2013-05-04 20:19:00,63.9,44.0,30.13,NNE,25,2.0,6.0,48,0.00,,,0.00,weatherlink.com 1.10,2013-05-05 00:19:00,
2013-05-04 20:34:00,62.9,44.0,30.13,ENE,74,3.0,6.0,50,0.00,,,0.00,weatherlink.com 1.10,2013-05-05 00:34:00,
2013-05-04 20:49:00,65.7,47.0,30.13,NE,49,2.0,6.0,51,0.00,,,0.00,weatherlink.com 1.10,2013-05-05 00:49:00,
2013-05-04 21:02:00,65.3,43.0,30.13,East,89,3.0,6.0,44,0.00,,,0.00,weatherlink.com 1.10,2013-05-05 01:02:00,
2013-05-04 21:19:00,64.8,43.0,30.13,NE,41,5.0,6.0,45,0.00,,,0.00,weatherlink.com 1.10,2013-05-05 01:19:00,
2013-05-04 21:34:00,64.6,42.0,30.14,ENE,66,3.0,8.0,44,0.00,,,0.00,weatherlink.com 1.10,2013-05-05 01:34:00,
2013-05-04 21:49:00,64.2,42.0,30.14,ENE,65,2.0,6.0,45,0.00,,,0.00,weatherlink.com 1.10,2013-05-05 01:49:00,
2013-05-04 22:04:00,63.7,42.0,30.14,ENE,75,2.0,4.0,46,0.00,,,0.00,weatherlink.com 1.10,2013-05-05 02:04:00,
2013-05-04 22:18:00,63.7,42.0,30.14,East,79,3.0,6.0,46,0.00,,,0.00,weatherlink.com 1.10,2013-05-05 02:18:00,
2013-05-04 22:34:00,63.3,42.0,30.14,ENE,71,4.0,6.0,46,0.00,,,0.00,weatherlink.com 1.10,2013-05-05 02:34:00,
2013-05-04 22:49:00,62.9,42.0,30.15,ESE,102,8.0,8.0,47,0.00,,,0.00,weatherlink.com 1.10,2013-05-05 02:49:00,
2013-05-04 23:04:00,62.5,42.0,30.15,ENE,78,4.0,5.0,48,0.00,,,0.00,weatherlink.com 1.10,2013-05-05 03:04:00,
2013-05-04 23:19:00,62.0,42.0,30.15,East,79,4.0,6.0,49,0.00,,,0.00,weatherlink.com 1.10,2013-05-05 03:19:00,
2013-05-04 23:34:00,61.5,43.0,30.15,East,81,3.0,4.0,50,0.00,,,0.00,weatherlink.com 1.10,2013-05-05 03:34:00,
2013-05-04 23:49:00,61.1,42.0,30.15,East,86,2.0,4.0,50,0.00,,,0.00,weatherlink.com 1.10,2013-05-05 03:49:00,